Monday, September 1, 2014, 5:01 PM EDT

KNHK, Nas Patuxent River Md

Location: Patuxent River, MD, United States Lat: 38.3
Local Time: 5:01 PM EDT (21:01 GMT) Lon: -76.4
Time Zone: US/Eastern Elev: 39 ft

Show me the last for .
Show Decoded

2014-09-01 15:52 METAR KNHK 011952Z AUTO 12006KT 10SM BKN050 31/24 A2995 RMK AO2 SLP143 T03110244
                 =
2014-09-01 14:52 METAR KNHK 011852Z AUTO 24009KT 10SM FEW050 34/21 A2996 RMK AO2 SLP147 T03390206
                 =
2014-09-01 13:52 METAR KNHK 011752Z AUTO 25009KT 10SM CLR 33/21 A2998 RMK AO2 SLP152 60001
                 T03280211 10328 20244 58015 =
2014-09-01 12:52 METAR KNHK 011652Z AUTO 25008KT 10SM FEW034 31/22 A3000 RMK AO2 SLP158 T03110217
                 =
2014-09-01 11:52 METAR KNHK 011552Z AUTO VRB05KT 10SM CLR 30/24 A3002 RMK AO2 SLP164 T03000239 =
2014-09-01 10:52 METAR KNHK 011452Z AUTO 22005KT 10SM CLR 28/24 A3003 RMK AO2 SLP167 60001
                 T02780239 55008 =
2014-09-01 09:52 METAR KNHK 011352Z AUTO 18008KT 10SM FEW110 26/23 A3002 RMK AO2 SLP165 T02560233
                 =
2014-09-01 08:52 METAR KNHK 011252Z AUTO 00000KT 10SM FEW120 25/23 A3002 RMK AO2 RAE30 SLP167
                 P0001 T02500233 =
2014-09-01 07:52 METAR KNHK 011152Z AUTO 29005KT 7SM -RA SCT110 24/23 A3005 RMK AO2 RAB07 SLP176
                 P0005 60006 70006 T02440233 10250 20239 51015 =
2014-09-01 06:52 METAR KNHK 011052Z AUTO 22005KT 10SM FEW080 BKN100 24/22 A3004 RMK AO2 SLP172
                 T02390222 =
2014-09-01 05:52 METAR KNHK 010952Z AUTO 23006KT 10SM BKN120 24/22 A3003 RMK AO2 SLP168 T02390222
                 =
2014-09-01 04:52 METAR KNHK 010852Z AUTO 24005KT 10SM SCT110 24/23 A3001 RMK AO2 RAB01E45
                 TSB0753E13 SLP161 P0001 60001 T02390228 58005 =
2014-09-01 04:19 METAR KNHK 010819Z AUTO 23008KT 10SM -RA FEW100 SCT110 24/23 A3002 RMK AO2 RAB01
                 TSB0753E13 P0000 T02440228 =
2014-09-01 03:52 METAR KNHK 010752Z AUTO 22008KT 10SM TS SCT095 25/22 A3002 RMK AO2 TSB47 SLP165
                 T02500222 =
2014-09-01 02:52 METAR KNHK 010652Z AUTO 28004KT 10SM CLR 24/22 A3002 RMK AO2 SLP166 T02440222 =
2014-09-01 01:52 METAR KNHK 010552Z AUTO 21006KT 10SM CLR 25/22 A3002 RMK AO2 RAB09E18 SLP166
                 P0000 60000 T02500217 10272 20244 58005 =
2014-09-01 00:52 METAR KNHK 010452Z AUTO 17004KT 10SM FEW044 FEW060 24/22 A3003 RMK AO2 RAE0357
                 SLP171 P0000 T02440217 403330233 =
2014-08-31 23:52 METAR KNHK 010352Z AUTO 31005KT 10SM -RA FEW044 SCT065 BKN080 25/22 A3004 RMK
                 AO2 RAB45 SLP174 P0000 T02500222 =
2014-08-31 22:52 METAR KNHK 010252Z AUTO 22005KT 10SM FEW050 FEW060 27/23 A3004 RMK AO2 SLP172
                 T02670228 53008 =
2014-08-31 21:52 METAR KNHK 010152Z AUTO 19005KT 10SM CLR 27/23 A3003 RMK AO2 SLP168 T02670228 =
2014-08-31 20:52 METAR KNHK 010052Z AUTO 18004KT 10SM CLR 27/23 A3002 RMK AO2 SLP166 T02670228 =
2014-08-31 19:52 METAR KNHK 312352Z AUTO 17005KT 10SM CLR 27/22 A3001 RMK AO2 SLP164 T02720222
                 10333 20272 53005 =
2014-08-31 18:52 METAR KNHK 312252Z AUTO 15007KT 10SM CLR 29/22 A3001 RMK AO2 SLP161 T02890222 =

Support USWX by starting your Amazon purchase here.